Time;durP1;ratioP1;P1;durP2;ratioP2;P2;SDS_P1;SDS_P2;PMS_P1;PMS_P2;Temp;Humidity;BMP_temperature;BMP_pressure;BME280_temperature;BME280_humidity;BME280_pressure;Samples;Min_cycle;Max_cycle;Signal;HPM_P1;HPM_P2
2023/05/08 00:01:47;;;;;;;10.77;3.50;;;;;;;17.53;46.93;95411.78;5045646;28;20095;-78
2023/05/08 00:04:13;;;;;;;8.65;2.75;;;;;;;17.48;47.34;95414.56;5045404;28;20036;-78
2023/05/08 00:06:38;;;;;;;6.90;2.78;;;;;;;17.31;47.44;95388.53;5056528;28;20533;-78
2023/05/08 00:09:04;;;;;;;10.52;2.80;;;;;;;17.33;47.15;95383.63;5053914;28;20422;-78
2023/05/08 00:11:30;;;;;;;6.97;2.55;;;;;;;17.29;47.50;95396.06;5043264;28;20480;-78
2023/05/08 00:13:55;;;;;;;6.10;2.75;;;;;;;17.47;47.26;95407.66;5034401;28;20068;-78
2023/05/08 00:16:21;;;;;;;4.32;2.42;;;;;;;17.38;47.20;95398.78;5034604;28;20029;-78
2023/05/08 00:18:46;;;;;;;7.35;2.85;;;;;;;17.24;47.24;95382.81;5049672;28;20033;-78
2023/05/08 00:21:12;;;;;;;5.32;2.63;;;;;;;17.26;47.52;95402.84;5054306;28;20487;-78
2023/05/08 00:23:37;;;;;;;5.75;2.75;;;;;;;17.29;47.54;95404.91;5056024;28;20037;-78
2023/05/08 00:26:03;;;;;;;5.13;3.47;;;;;;;17.09;47.50;95384.00;5055633;28;20049;-78
2023/05/08 00:28:29;;;;;;;6.85;2.78;;;;;;;17.15;47.66;95390.81;5055555;28;20040;-78
2023/05/08 00:30:54;;;;;;;6.97;2.45;;;;;;;16.71;47.78;95327.41;5036816;28;20040;-78
2023/05/08 00:33:19;;;;;;;3.30;2.42;;;;;;;17.15;47.72;95403.44;5051827;28;20463;-78
2023/05/08 00:35:45;;;;;;;12.85;2.70;;;;;;;17.01;47.86;95390.13;5039685;28;20031;-77
2023/05/08 00:38:10;;;;;;;5.18;2.20;;;;;;;17.13;47.87;95417.13;5054401;28;20116;-78
2023/05/08 00:40:36;;;;;;;6.53;3.20;;;;;;;16.76;47.93;95364.00;5053822;28;20031;-78
2023/05/08 00:43:01;;;;;;;3.88;2.60;;;;;;;16.94;48.22;95395.13;5053568;28;20136;-78
2023/05/08 00:45:38;;;;;;;7.15;2.95;;;;;;;17.05;48.60;95423.25;5054811;28;20028;-77
2023/05/08 00:48:04;;;;;;;4.43;2.55;;;;;;;16.83;49.06;95404.53;5053640;28;20056;-78
2023/05/08 00:50:31;;;;;;;6.47;3.03;;;;;;;16.85;49.20;95411.19;5054233;28;20060;-78
2023/05/08 00:52:59;;;;;;;6.53;2.70;;;;;;;16.95;49.05;95434.22;5053909;28;20067;-77
2023/05/08 00:55:25;;;;;;;11.73;2.58;;;;;;;16.26;49.00;95332.03;5055084;28;20029;-78
2023/05/08 00:57:51;;;;;;;10.50;3.25;;;;;;;16.80;48.89;95416.63;5055021;28;20035;-78
2023/05/08 01:00:17;;;;;;;4.57;2.65;;;;;;;16.38;48.81;95356.38;5054772;28;20506;-78
2023/05/08 01:02:44;;;;;;;5.95;3.15;;;;;;;16.88;48.96;95444.56;5036489;28;20036;-77
2023/05/08 01:05:10;;;;;;;8.23;2.53;;;;;;;16.25;48.93;95340.38;5056069;28;20638;-78
2023/05/08 01:07:35;;;;;;;8.45;2.95;;;;;;;16.78;49.18;95432.22;5056331;28;20071;-78
2023/05/08 01:10:01;;;;;;;11.18;3.20;;;;;;;16.66;49.14;95423.97;5051870;28;20393;-78
2023/05/08 01:12:51;;;;;;;7.90;2.90;;;;;;;16.59;49.57;95424.38;5039729;28;20159;-78
2023/05/08 01:15:30;;;;;;;6.30;2.60;;;;;;;16.43;49.60;95404.41;5055433;28;20090;-77
2023/05/08 01:18:20;;;;;;;5.60;2.70;;;;;;;16.63;49.72;95440.63;5045119;28;20037;-77
2023/05/08 01:21:05;;;;;;;6.28;2.88;;;;;;;16.45;49.64;95420.16;5052087;28;20051;-77
2023/05/08 01:24:09;;;;;;;8.13;2.78;;;;;;;16.56;49.81;95451.75;5056384;28;20071;-77
2023/05/08 01:27:04;;;;;;;5.95;3.28;;;;;;;16.35;49.87;95407.03;5045946;28;20085;-77
2023/05/08 01:30:01;;;;;;;11.93;2.92;;;;;;;16.41;49.97;95430.69;5034483;28;20037;-77
2023/05/08 01:32:41;;;;;;;7.45;3.30;;;;;;;16.53;50.09;95435.50;5052397;28;20033;-77
2023/05/08 01:35:26;;;;;;;8.25;3.30;;;;;;;16.26;50.22;95398.91;5053411;28;20021;-77
2023/05/08 01:38:14;;;;;;;4.70;2.60;;;;;;;16.13;50.29;95384.50;5048305;28;20060;-78
2023/05/08 01:40:51;;;;;;;8.57;2.83;;;;;;;16.43;50.33;95425.81;5045373;28;20051;-78
2023/05/08 01:43:47;;;;;;;7.03;2.95;;;;;;;16.46;50.29;95432.47;5040451;28;20037;-78
2023/05/08 01:46:18;;;;;;;8.07;2.95;;;;;;;16.44;50.28;95432.75;5051750;28;20040;-79
2023/05/08 01:48:50;;;;;;;5.63;3.08;;;;;;;16.45;50.42;95428.19;5049779;28;20473;-80
2023/05/08 01:51:23;;;;;;;7.50;2.80;;;;;;;16.43;50.38;95430.38;5046886;28;20048;-80
2023/05/08 01:53:54;;;;;;;8.98;3.20;;;;;;;16.35;50.89;95431.91;5035477;28;20041;-80
2023/05/08 01:56:22;;;;;;;;;;;;;;;16.31;51.36;95422.13;5048846;28;20548;-81
2023/05/08 01:58:51;;;;;;;7.53;2.90;;;;;;;16.10;51.57;95397.69;5049190;28;19917;-80
2023/05/08 02:01:19;;;;;;;11.52;3.25;;;;;;;16.00;51.78;95390.72;5050191;28;20500;-80
2023/05/08 02:03:47;;;;;;;6.85;3.20;;;;;;;15.94;52.04;95391.91;5048945;28;20037;-80
2023/05/08 02:06:16;;;;;;;5.82;3.22;;;;;;;15.89;52.23;95389.34;5050544;28;20036;-80
2023/05/08 02:08:44;;;;;;;10.73;4.10;;;;;;;16.05;52.00;95438.72;5048948;28;20601;-80
2023/05/08 02:11:12;;;;;;;9.52;3.03;;;;;;;15.81;52.83;95411.44;5048893;28;20059;-80
2023/05/08 02:13:39;;;;;;;9.23;3.50;;;;;;;15.77;53.10;95413.16;5031276;28;20044;-80
2023/05/08 02:16:07;;;;;;;9.07;3.55;;;;;;;15.79;52.81;95419.75;5030854;28;20029;-80
2023/05/08 02:18:33;;;;;;;7.55;3.50;;;;;;;15.78;53.17;95404.03;5048735;28;20029;-80
2023/05/08 02:21:01;;;;;;;8.73;3.45;;;;;;;15.90;53.32;95430.25;5029111;28;20033;-80
2023/05/08 02:23:27;;;;;;;6.10;3.22;;;;;;;15.65;53.25;95397.59;5032211;28;20040;-80
2023/05/08 02:25:54;;;;;;;7.47;3.20;;;;;;;15.39;53.32;95359.91;5048715;28;20033;-80
2023/05/08 02:28:23;;;;;;;9.63;3.35;;;;;;;15.81;53.22;95430.97;5050360;28;20446;-80
2023/05/08 02:30:50;;;;;;;7.50;3.83;;;;;;;15.57;53.28;95400.19;5048642;28;20037;-81
2023/05/08 02:33:17;;;;;;;6.32;3.45;;;;;;;15.47;53.34;95397.72;5039094;28;20441;-80
2023/05/08 02:35:44;;;;;;;8.48;3.33;;;;;;;15.28;53.39;95382.56;5041724;28;20033;-80
2023/05/08 02:38:12;;;;;;;10.90;3.75;;;;;;;15.35;53.43;95399.00;5036205;28;20033;-81
2023/05/08 02:40:41;;;;;;;5.75;3.47;;;;;;;15.44;53.79;95417.78;5029197;28;20033;-81
2023/05/08 02:43:07;;;;;;;5.95;3.90;;;;;;;15.52;53.84;95435.03;5028809;28;20468;-80
2023/05/08 02:45:43;;;;;;;7.28;3.63;;;;;;;15.47;53.85;95435.13;5048126;28;20067;-81
2023/05/08 02:48:14;;;;;;;10.45;3.67;;;;;;;15.42;54.13;95442.16;5032067;28;20029;-80
2023/05/08 02:50:52;;;;;;;10.57;4.03;;;;;;;15.14;54.18;95405.81;5029044;28;20025;-80
2023/05/08 02:53:25;;;;;;;10.90;4.00;;;;;;;15.21;54.26;95430.28;5029971;28;20037;-81
2023/05/08 02:56:00;;;;;;;13.00;4.22;;;;;;;15.17;54.21;95428.50;5029740;28;20033;-80
2023/05/08 02:58:33;;;;;;;6.45;3.80;;;;;;;14.74;54.59;95367.31;5040220;28;20215;-81
2023/05/08 03:01:13;;;;;;;10.15;4.15;;;;;;;15.17;54.73;95429.28;5034850;28;20460;-81
2023/05/08 03:03:42;;;;;;;5.53;3.80;;;;;;;15.16;55.18;95443.72;5045434;28;20114;-81
2023/05/08 03:06:12;;;;;;;9.18;4.45;;;;;;;15.12;55.69;95439.25;5048043;28;20037;-80
2023/05/08 03:08:39;;;;;;;9.45;4.75;;;;;;;15.18;55.56;95444.19;5029235;28;20029;-80
2023/05/08 03:11:11;;;;;;;8.70;4.43;;;;;;;15.01;55.64;95406.63;5046169;28;20037;-80
2023/05/08 03:13:39;;;;;;;7.80;4.13;;;;;;;15.15;55.60;95431.47;5033182;28;20026;-80
2023/05/08 03:16:10;;;;;;;10.02;4.25;;;;;;;15.30;55.53;95438.38;5047694;28;20076;-81
2023/05/08 03:18:44;;;;;;;14.33;4.30;;;;;;;15.10;55.42;95420.09;5048273;28;20522;-80
2023/05/08 03:21:12;;;;;;;11.73;4.65;;;;;;;15.03;55.10;95410.56;5035692;28;20280;-80
2023/05/08 03:23:39;;;;;;;8.00;4.28;;;;;;;15.18;54.63;95444.19;5041740;28;20503;-80
2023/05/08 03:26:06;;;;;;;8.90;4.50;;;;;;;15.22;54.37;95452.44;5034239;28;20621;-80
2023/05/08 03:28:35;;;;;;;11.57;4.63;;;;;;;14.47;54.55;95343.25;5044065;28;20147;-80
2023/05/08 03:31:01;;;;;;;11.65;3.63;;;;;;;14.98;54.80;95433.91;5032141;28;20450;-80
2023/05/08 03:33:29;;;;;;;8.32;4.07;;;;;;;15.16;54.84;95454.41;5047551;28;20431;-80
2023/05/08 03:35:56;;;;;;;6.45;4.13;;;;;;;15.17;54.83;95457.88;5030955;28;20029;-80
2023/05/08 03:38:22;;;;;;;10.57;4.07;;;;;;;14.97;55.04;95430.44;5048500;28;20127;-80
2023/05/08 03:40:48;;;;;;;21.35;5.07;;;;;;;15.06;55.03;95434.00;5048074;28;20051;-80
2023/05/08 03:43:15;;;;;;;22.50;6.00;;;;;;;15.13;55.35;95446.97;5044262;28;20025;-80
2023/05/08 03:45:40;;;;;;;12.63;4.93;;;;;;;15.00;55.14;95415.72;5034432;28;20052;-80
2023/05/08 03:48:08;;;;;;;16.50;5.10;;;;;;;15.03;55.56;95423.13;5040338;28;20448;-80
2023/05/08 03:50:35;;;;;;;20.38;5.40;;;;;;;14.98;55.66;95424.00;5036666;28;20032;-81
2023/05/08 03:53:00;;;;;;;9.45;5.70;;;;;;;15.15;55.43;95444.81;5037325;28;20029;-81
2023/05/08 03:55:26;;;;;;;12.55;6.07;;;;;;;15.26;55.14;95459.56;5027588;28;20087;-80
2023/05/08 03:58:21;;;;;;;8.20;5.13;;;;;;;15.24;55.08;95453.72;5041005;28;20048;-80
2023/05/08 04:01:04;;;;;;;9.38;6.22;;;;;;;15.02;55.31;95427.69;5030981;28;20038;-80
2023/05/08 04:04:09;;;;;;;11.13;4.88;;;;;;;15.26;55.30;95464.91;5017402;28;20021;-79
2023/05/08 04:06:58;;;;;;;10.88;5.28;;;;;;;15.29;55.29;95469.66;5037040;28;20119;-80
2023/05/08 04:09:48;;;;;;;12.13;4.80;;;;;;;15.33;55.16;95475.22;5043437;28;20040;-80
2023/05/08 04:12:18;;;;;;;13.93;5.93;;;;;;;15.14;54.94;95447.78;5048918;28;20044;-79
2023/05/08 04:15:02;;;;;;;8.38;5.50;;;;;;;15.37;54.72;95468.97;5047654;28;20033;-80
2023/05/08 04:17:40;;;;;;;10.48;3.80;;;;;;;14.92;54.77;95398.50;5046793;28;20033;-80
2023/05/08 04:20:11;;;;;;;5.78;3.97;;;;;;;15.18;54.87;95449.53;5050200;28;20029;-80
2023/05/08 04:22:39;;;;;;;12.80;4.50;;;;;;;15.49;54.47;95492.53;5044150;28;20399;-80
2023/05/08 04:25:06;;;;;;;13.02;4.18;;;;;;;15.31;54.71;95453.34;5042972;28;20116;-80
2023/05/08 04:27:33;;;;;;;9.00;4.38;;;;;;;15.50;54.81;95485.31;5050594;28;20543;-81
2023/05/08 04:30:01;;;;;;;7.38;3.90;;;;;;;15.48;54.07;95464.25;5037980;28;20389;-80
2023/05/08 04:32:29;;;;;;;12.68;4.45;;;;;;;15.55;54.16;95459.31;5032676;28;20040;-81
2023/05/08 04:34:55;;;;;;;7.25;4.05;;;;;;;15.59;53.82;95464.84;5049008;28;20044;-81
2023/05/08 04:37:31;;;;;;;9.55;4.35;;;;;;;15.53;53.90;95450.78;5051643;28;20522;-80
2023/05/08 04:39:57;;;;;;;9.82;4.00;;;;;;;15.51;53.73;95438.78;5049236;28;20044;-80
2023/05/08 04:42:24;;;;;;;15.40;4.13;;;;;;;15.76;53.95;95486.44;5034473;28;20496;-80
2023/05/08 04:44:50;;;;;;;7.95;4.43;;;;;;;15.52;53.58;95435.03;5046660;28;20045;-81
2023/05/08 04:47:16;;;;;;;11.48;4.72;;;;;;;15.81;53.49;95471.06;5030808;28;20033;-81
2023/05/08 04:49:41;;;;;;;7.90;3.72;;;;;;;15.66;53.40;95428.59;5038312;28;20028;-81
2023/05/08 04:52:07;;;;;;;6.45;3.38;;;;;;;15.81;53.13;95451.56;5051752;28;20040;-81
2023/05/08 04:54:33;;;;;;;9.73;4.18;;;;;;;15.37;52.74;95369.31;5042356;28;20037;-80
2023/05/08 04:56:58;;;;;;;10.02;4.18;;;;;;;16.01;52.56;95469.06;5032394;28;20045;-81
2023/05/08 04:59:24;;;;;;;7.97;4.18;;;;;;;16.04;52.45;95479.16;5041610;28;20454;-81
2023/05/08 05:01:50;;;;;;;9.23;4.53;;;;;;;15.91;52.22;95448.69;5040436;28;20029;-81
2023/05/08 05:04:15;;;;;;;13.00;4.72;;;;;;;15.88;51.81;95433.22;5045512;28;20346;-80
2023/05/08 05:06:41;;;;;;;11.18;4.43;;;;;;;16.07;51.71;95446.47;5036745;28;20040;-81
2023/05/08 05:09:07;;;;;;;16.25;4.63;;;;;;;16.10;51.92;95441.28;5030651;28;20060;-81
2023/05/08 05:11:32;;;;;;;8.65;4.93;;;;;;;16.02;51.87;95428.63;5048285;28;20037;-81
2023/05/08 05:13:58;;;;;;;10.23;5.00;;;;;;;15.92;51.89;95415.50;5034658;28;20041;-81
2023/05/08 05:16:23;;;;;;;10.68;5.40;;;;;;;16.15;51.80;95446.53;5051246;28;20063;-80
2023/05/08 05:18:49;;;;;;;10.70;4.70;;;;;;;16.24;52.14;95451.19;5048296;28;20039;-81
2023/05/08 05:21:14;;;;;;;10.68;5.07;;;;;;;16.18;52.02;95439.78;5030482;28;20026;-81
2023/05/08 05:23:40;;;;;;;10.10;4.93;;;;;;;16.07;51.97;95412.47;5037162;28;20465;-81
2023/05/08 05:26:06;;;;;;;11.90;5.05;;;;;;;16.26;52.25;95449.78;5050243;28;20069;-81
2023/05/08 05:28:32;;;;;;;9.75;4.75;;;;;;;16.15;51.40;95427.03;5044452;28;20049;-80
2023/05/08 05:30:57;;;;;;;8.30;5.40;;;;;;;16.37;51.44;95461.03;5039745;28;20475;-81
2023/05/08 05:33:23;;;;;;;14.68;4.68;;;;;;;15.78;51.57;95366.59;5049997;28;20094;-80
2023/05/08 05:35:48;;;;;;;13.65;5.57;;;;;;;16.32;51.20;95448.59;5038996;28;20044;-80
2023/05/08 05:38:14;;;;;;;10.95;5.85;;;;;;;16.15;51.16;95414.44;5041054;28;20116;-81
2023/05/08 05:40:41;;;;;;;8.73;5.72;;;;;;;16.44;51.14;95448.81;5051028;28;20037;-80
2023/05/08 05:43:06;;;;;;;9.82;5.53;;;;;;;16.49;51.22;95448.69;5034989;28;20034;-80
2023/05/08 05:45:31;;;;;;;14.35;6.40;;;;;;;16.50;51.17;95438.78;5047297;28;20110;-80
2023/05/08 05:47:57;;;;;;;12.18;6.85;;;;;;;16.48;51.42;95441.75;5049589;28;20412;-81
2023/05/08 05:50:22;;;;;;;17.17;6.88;;;;;;;16.20;51.43;95402.81;5049032;28;20446;-80
2023/05/08 05:52:48;;;;;;;22.38;8.07;;;;;;;16.51;51.46;95435.00;5032877;28;20037;-80
2023/05/08 05:55:13;;;;;;;19.02;7.40;;;;;;;16.36;51.41;95398.69;5031558;28;20063;-80
2023/05/08 05:57:39;;;;;;;20.10;6.97;;;;;;;16.70;51.72;95450.94;5039119;28;20083;-80
2023/05/08 06:00:05;;;;;;;18.40;6.68;;;;;;;16.37;51.09;95394.94;5030714;28;20459;-80
2023/05/08 06:02:32;;;;;;;11.50;6.32;;;;;;;16.69;51.05;95435.97;5029256;28;20029;-80
2023/05/08 06:05:00;;;;;;;21.85;7.80;;;;;;;16.52;51.23;95402.59;5031156;28;20029;-80
2023/05/08 06:07:26;;;;;;;16.90;7.13;;;;;;;16.63;51.41;95424.56;5038038;28;20041;-80
2023/05/08 06:09:52;;;;;;;14.75;7.63;;;;;;;16.60;51.11;95430.50;5046717;28;20059;-80
2023/05/08 06:12:18;;;;;;;18.75;7.43;;;;;;;16.59;50.98;95408.31;5047028;28;20049;-81
2023/05/08 06:14:43;;;;;;;11.98;6.55;;;;;;;16.95;50.41;95432.31;5049994;28;20072;-80
2023/05/08 06:17:09;;;;;;;12.43;7.13;;;;;;;16.85;50.35;95419.22;5037513;28;20401;-81
2023/05/08 06:19:34;;;;;;;19.60;7.25;;;;;;;16.87;50.46;95425.03;5031908;28;20034;-81
2023/05/08 06:22:00;;;;;;;15.68;7.13;;;;;;;16.91;49.90;95407.25;5032598;28;20064;-81
2023/05/08 06:24:26;;;;;;;17.85;7.65;;;;;;;17.09;49.74;95407.34;5028579;28;20167;-81
2023/05/08 06:26:52;;;;;;;13.05;6.82;;;;;;;17.22;49.64;95419.84;5035501;28;20058;-80
2023/05/08 06:29:17;;;;;;;14.00;6.05;;;;;;;17.38;49.60;95421.03;5037761;28;20113;-80
2023/05/08 06:31:42;;;;;;;19.73;7.22;;;;;;;17.24;49.77;95404.25;5030225;28;20041;-81
2023/05/08 06:34:08;;;;;;;18.98;8.38;;;;;;;17.43;49.75;95418.19;5042586;28;20492;-81
2023/05/08 06:36:35;;;;;;;24.13;8.38;;;;;;;17.18;49.60;95390.19;5039531;28;20041;-80
2023/05/08 06:39:03;;;;;;;16.13;8.43;;;;;;;17.28;49.57;95395.28;5034657;28;20039;-81
2023/05/08 06:41:29;;;;;;;20.88;8.23;;;;;;;17.44;49.45;95411.75;5040754;28;20037;-80
2023/05/08 06:43:54;;;;;;;17.27;8.10;;;;;;;17.41;49.45;95376.69;5027975;28;20340;-80
2023/05/08 06:46:20;;;;;;;26.15;8.05;;;;;;;17.73;48.90;95430.78;5031408;28;20034;-80
2023/05/08 06:48:46;;;;;;;25.27;8.32;;;;;;;17.56;48.80;95384.31;5034644;28;20052;-81
2023/05/08 06:51:11;;;;;;;25.38;7.93;;;;;;;17.78;49.33;95421.78;5034472;28;20044;-80
2023/05/08 06:53:36;;;;;;;13.85;7.70;;;;;;;18.02;48.50;95437.44;5037206;28;20029;-80
2023/05/08 06:56:02;;;;;;;18.25;7.47;;;;;;;17.52;49.43;95418.22;5028387;28;20049;-81
2023/05/08 06:58:30;;;;;;;19.65;7.55;;;;;;;17.77;49.04;95432.84;5030069;28;20061;-80
2023/05/08 07:00:55;;;;;;;17.27;8.15;;;;;;;17.86;48.30;95404.13;5040304;28;20128;-80
2023/05/08 07:03:21;;;;;;;21.58;7.70;;;;;;;17.94;48.26;95404.13;5030288;28;20059;-80
2023/05/08 07:05:46;;;;;;;19.45;9.00;;;;;;;18.27;48.03;95441.28;5044619;28;20128;-80
2023/05/08 07:08:12;;;;;;;20.13;8.48;;;;;;;18.17;47.89;95425.47;5048086;28;20033;-80
2023/05/08 07:10:37;;;;;;;28.38;8.80;;;;;;;18.00;47.95;95412.84;5042719;28;20033;-80
2023/05/08 07:13:02;;;;;;;18.85;8.55;;;;;;;18.15;47.94;95428.50;5029318;28;20432;-81
2023/05/08 07:15:30;;;;;;;18.08;8.18;;;;;;;18.42;47.72;95432.75;5029935;28;20037;-81
2023/05/08 07:17:56;;;;;;;22.75;7.68;;;;;;;18.44;47.56;95434.00;5032635;28;20041;-80
2023/05/08 07:20:23;;;;;;;17.38;6.93;;;;;;;18.19;47.53;95404.47;5030045;28;20041;-81
2023/05/08 07:22:48;;;;;;;21.10;7.55;;;;;;;18.14;47.95;95429.59;5034245;28;20033;-81
2023/05/08 07:25:14;;;;;;;17.80;7.90;;;;;;;18.25;47.55;95419.31;5034324;28;20612;-80
2023/05/08 07:27:40;;;;;;;17.23;7.15;;;;;;;18.44;46.67;95406.38;5035646;28;20045;-81
2023/05/08 07:30:06;;;;;;;16.40;6.53;;;;;;;18.74;46.33;95421.53;5028170;28;20033;-81
2023/05/08 07:32:32;;;;;;;11.98;6.28;;;;;;;18.72;46.78;95439.06;5037081;28;20025;-80
2023/05/08 07:34:57;;;;;;;20.33;7.22;;;;;;;18.48;46.35;95381.25;5038212;28;20034;-80
2023/05/08 07:37:23;;;;;;;16.77;8.07;;;;;;;18.88;46.02;95442.84;5041163;28;20498;-81
2023/05/08 07:39:48;;;;;;;19.40;6.80;;;;;;;18.81;46.16;95413.78;5027937;28;20041;-81
2023/05/08 07:42:14;;;;;;;17.42;7.60;;;;;;;19.09;45.65;95434.88;5031123;28;20081;-80
2023/05/08 07:44:39;;;;;;;22.98;6.68;;;;;;;18.81;45.29;95348.50;5045531;28;20064;-80
2023/05/08 07:47:05;;;;;;;18.17;6.95;;;;;;;19.22;45.50;95442.72;5048620;28;20320;-81
2023/05/08 07:49:30;;;;;;;19.20;6.55;;;;;;;18.63;45.88;95412.22;5043348;28;20425;-81
2023/05/08 07:51:56;;;;;;;19.48;7.72;;;;;;;18.94;45.74;95424.63;5029258;28;20076;-80
2023/05/08 07:54:21;;;;;;;15.13;7.55;;;;;;;18.48;46.00;95380.44;5027587;28;20105;-80
2023/05/08 07:56:47;;;;;;;17.58;8.30;;;;;;;18.48;46.35;95408.09;5037106;28;20085;-80
2023/05/08 07:59:12;;;;;;;21.27;8.00;;;;;;;18.87;45.44;95420.53;5033541;28;20456;-80
2023/05/08 08:01:38;;;;;;;22.13;7.40;;;;;;;18.92;46.11;95434.94;5031712;28;20412;-81
2023/05/08 08:04:04;;;;;;;15.85;6.57;;;;;;;18.73;45.67;95430.69;5031204;28;20025;-80
2023/05/08 08:06:30;;;;;;;27.55;8.25;;;;;;;18.68;46.36;95427.41;5041118;28;20013;-80
2023/05/08 08:08:55;;;;;;;10.43;6.68;;;;;;;18.77;45.80;95410.13;5031423;28;20029;-81
2023/05/08 08:11:21;;;;;;;13.73;6.20;;;;;;;19.02;45.39;95434.59;5046398;28;20045;-81
2023/05/08 08:13:47;;;;;;;15.13;5.90;;;;;;;18.69;46.38;95415.53;5045127;28;20408;-81
2023/05/08 08:16:12;;;;;;;16.65;6.63;;;;;;;18.66;46.68;95400.84;5045972;28;20025;-80
2023/05/08 08:18:38;;;;;;;12.82;6.75;;;;;;;18.61;46.97;95384.13;5017530;28;20025;-81
2023/05/08 08:21:06;;;;;;;13.10;6.22;;;;;;;18.89;47.51;95450.59;5031263;28;20140;-81
2023/05/08 08:23:32;;;;;;;15.10;6.40;;;;;;;19.00;47.24;95434.91;5037706;28;20511;-81
2023/05/08 08:25:58;;;;;;;18.63;5.88;;;;;;;19.02;47.11;95443.44;5046304;28;20179;-81
2023/05/08 08:28:23;;;;;;;15.32;6.13;;;;;;;19.32;46.50;95425.47;5033981;28;20143;-81
2023/05/08 08:30:49;;;;;;;10.73;6.45;;;;;;;19.48;46.30;95426.53;5032873;28;20091;-81
2023/05/08 08:33:15;;;;;;;13.93;6.25;;;;;;;19.62;45.88;95421.72;5031433;28;20034;-81
2023/05/08 08:35:41;;;;;;;9.60;5.78;;;;;;;19.54;46.43;95435.22;5037674;28;20041;-81
2023/05/08 08:38:06;;;;;;;17.48;6.00;;;;;;;19.43;46.42;95405.19;5037671;28;20033;-80
2023/05/08 08:40:31;;;;;;;10.93;5.50;;;;;;;19.77;45.90;95415.00;5040475;28;20359;-81
2023/05/08 08:42:58;;;;;;;13.13;5.63;;;;;;;19.78;46.49;95413.09;5030880;28;20472;-81
2023/05/08 08:45:23;;;;;;;19.08;6.00;;;;;;;19.81;46.70;95428.59;5030688;28;20033;-80
2023/05/08 08:47:51;;;;;;;12.35;5.35;;;;;;;19.69;45.93;95380.06;5044253;28;20482;-81
2023/05/08 08:50:19;;;;;;;11.90;5.38;;;;;;;19.54;46.20;95354.50;5030826;28;20414;-81
2023/05/08 08:52:47;;;;;;;14.57;5.68;;;;;;;20.21;46.17;95419.00;5046907;28;20136;-81
2023/05/08 08:55:15;;;;;;;11.93;5.45;;;;;;;20.19;46.20;95420.44;5046163;28;20450;-81
2023/05/08 08:57:53;;;;;;;13.38;8.35;;;;;;;20.04;46.22;95392.97;5032637;28;20118;-80
2023/05/08 09:00:21;;;;;;;9.93;5.30;;;;;;;19.83;45.50;95348.34;5046014;28;20041;-81
2023/05/08 09:02:46;;;;;;;13.07;5.35;;;;;;;20.41;45.08;95374.34;5036687;28;20053;-80
2023/05/08 09:05:13;;;;;;;9.50;5.43;;;;;;;20.49;45.09;95402.31;5043488;28;20064;-81
2023/05/08 09:07:40;;;;;;;15.68;5.55;;;;;;;20.47;45.27;95383.00;5033051;28;20114;-81
2023/05/08 09:10:06;;;;;;;12.48;5.95;;;;;;;20.61;44.97;95365.41;5030383;28;20425;-81
2023/05/08 09:12:33;;;;;;;18.60;5.65;;;;;;;20.74;44.57;95361.66;5034932;28;20029;-81
2023/05/08 09:14:58;;;;;;;28.08;7.65;;;;;;;20.55;44.36;95339.81;5032142;28;20041;-81
2023/05/08 09:17:24;;;;;;;16.05;7.10;;;;;;;21.00;44.27;95365.97;5030635;28;20028;-81
2023/05/08 09:19:50;;;;;;;11.20;5.72;;;;;;;20.41;44.83;95290.84;5030515;28;20745;-81
2023/05/08 09:22:16;;;;;;;17.77;5.63;;;;;;;21.13;44.85;95368.34;5041131;28;20032;-81
2023/05/08 09:24:59;;;;;;;16.17;5.95;;;;;;;20.98;45.66;95320.47;5030525;28;20040;-81
2023/05/08 09:27:26;;;;;;;17.85;6.10;;;;;;;21.27;46.09;95357.28;5019765;28;20577;-81
2023/05/08 09:30:05;;;;;;;10.65;5.70;;;;;;;21.29;45.82;95356.91;5043983;28;20045;-81
2023/05/08 09:32:32;;;;;;;16.13;6.18;;;;;;;21.20;44.93;95321.19;5029843;28;20480;-81
2023/05/08 09:34:58;;;;;;;12.82;5.10;;;;;;;20.96;44.90;95297.66;5030191;28;20044;-81
2023/05/08 09:37:24;;;;;;;12.15;6.35;;;;;;;21.37;45.01;95334.44;5031071;28;20112;-81
2023/05/08 09:39:51;;;;;;;12.55;5.47;;;;;;;21.11;44.57;95349.03;5029686;28;20068;-82
2023/05/08 09:42:18;;;;;;;13.55;6.13;;;;;;;20.64;44.89;95265.06;5029695;28;20033;-82
2023/05/08 09:44:49;;;;;;;14.57;6.43;;;;;;;21.43;44.74;95362.78;5043042;28;20478;-81
2023/05/08 09:47:18;;;;;;;14.43;6.55;;;;;;;21.15;45.14;95382.28;5040737;28;20120;-81
2023/05/08 09:49:56;;;;;;;11.98;5.57;;;;;;;20.93;45.80;95384.59;5030168;28;20122;-81
2023/05/08 09:52:22;;;;;;;16.85;5.35;;;;;;;20.79;46.04;95388.41;5031863;28;20037;-81
2023/05/08 09:55:05;;;;;;;15.43;5.80;;;;;;;20.67;46.73;95379.50;5039579;28;20030;-81
2023/05/08 09:57:35;;;;;;;13.52;5.70;;;;;;;20.61;45.63;95340.38;5035635;28;20044;-81
2023/05/08 10:00:11;;;;;;;11.20;5.25;;;;;;;20.90;45.66;95366.41;5049649;28;20031;-81
2023/05/08 10:02:39;;;;;;;16.40;5.68;;;;;;;20.67;45.97;95352.53;5046988;28;20029;-80
2023/05/08 10:05:31;;;;;;;10.30;5.40;;;;;;;21.10;45.72;95366.31;5049130;28;20123;-81
2023/05/08 10:08:20;;;;;;;9.80;5.00;;;;;;;21.47;44.60;95339.38;5031896;28;20112;-83
2023/05/08 10:10:46;;;;;;;9.85;5.18;;;;;;;21.72;43.98;95373.34;5032175;28;20029;-81
2023/05/08 10:13:12;;;;;;;13.30;5.15;;;;;;;21.54;44.03;95340.41;5032470;28;20036;-80
2023/05/08 10:15:41;;;;;;;13.93;5.18;;;;;;;21.62;43.93;95352.19;5033755;28;20437;-81
2023/05/08 10:18:10;;;;;;;9.43;5.20;;;;;;;21.63;44.30;95344.88;5022224;28;20135;-81
2023/05/08 10:20:41;;;;;;;12.15;4.90;;;;;;;21.49;43.89;95312.88;5030649;28;20029;-81
2023/05/08 10:23:10;;;;;;;15.43;5.20;;;;;;;21.80;43.73;95337.34;5027813;28;20025;-81
2023/05/08 10:25:42;;;;;;;13.10;5.65;;;;;;;21.61;44.91;95356.00;5030377;28;20543;-81
2023/05/08 10:28:28;;;;;;;12.52;5.22;;;;;;;22.05;44.31;95343.47;5040116;28;20045;-82
2023/05/08 10:30:58;;;;;;;13.02;5.78;;;;;;;21.91;44.30;95324.13;5030719;28;20041;-81
2023/05/08 10:33:30;;;;;;;10.27;5.25;;;;;;;22.10;43.77;95343.25;5029106;28;20042;-81
2023/05/08 10:35:55;;;;;;;11.02;5.38;;;;;;;21.63;43.88;95274.72;5046916;28;20116;-81
2023/05/08 10:38:22;;;;;;;12.02;5.72;;;;;;;21.90;44.07;95304.44;5046731;28;20186;-81
2023/05/08 10:40:49;;;;;;;9.25;5.75;;;;;;;22.22;43.69;95332.41;5042639;28;20049;-81
2023/05/08 10:43:16;;;;;;;9.20;5.55;;;;;;;22.22;43.77;95337.81;5028913;28;20029;-81
2023/05/08 10:45:42;;;;;;;8.45;4.93;;;;;;;21.78;44.06;95296.38;5034607;28;20037;-81
2023/05/08 10:48:38;;;;;;;14.38;5.97;;;;;;;21.82;43.93;95267.56;5035764;28;20029;-81
2023/05/08 10:51:20;;;;;;;12.27;5.57;;;;;;;22.32;43.44;95309.50;5035124;28;20033;-82
2023/05/08 10:54:18;;;;;;;7.97;5.53;;;;;;;22.37;42.30;95338.19;5037407;28;20562;-81
2023/05/08 10:56:43;;;;;;;8.38;5.03;;;;;;;22.36;42.92;95329.28;5032948;28;20049;-81
2023/05/08 10:59:17;;;;;;;17.15;4.65;;;;;;;22.27;43.25;95312.47;5032679;28;20029;-81
2023/05/08 11:01:46;;;;;;;12.23;5.82;;;;;;;22.51;43.15;95319.66;5029883;28;20029;-81
2023/05/08 11:04:22;;;;;;;8.98;5.28;;;;;;;22.55;42.77;95324.03;5029426;28;20037;-81
2023/05/08 11:06:51;;;;;;;8.65;4.80;;;;;;;22.69;42.33;95302.00;5042682;28;20068;-81
2023/05/08 11:09:45;;;;;;;8.98;4.95;;;;;;;23.00;41.93;95320.19;5028526;28;20033;-81
2023/05/08 11:12:19;;;;;;;10.88;4.95;;;;;;;23.13;41.32;95315.47;5045295;28;20362;-81
2023/05/08 11:15:00;;;;;;;11.32;5.15;;;;;;;23.06;41.35;95283.63;5049323;28;20044;-81
2023/05/08 11:17:26;;;;;;;12.95;5.40;;;;;;;23.42;40.88;95304.97;5041744;28;20416;-80
2023/05/08 11:19:57;;;;;;;10.95;4.75;;;;;;;23.80;40.21;95298.88;5029437;28;20046;-81
2023/05/08 11:22:25;;;;;;;8.65;4.70;;;;;;;23.80;40.21;95298.88;5030349;28;20119;-81
2023/05/08 11:25:00;;;;;;;10.77;4.97;;;;;;;24.82;38.15;95268.72;5029201;28;20449;-81
2023/05/08 11:27:47;;;;;;;9.00;5.07;;;;;;;24.84;37.69;95277.31;5027789;28;20053;-81
2023/05/08 11:30:31;;;;;;;7.63;4.88;;;;;;;24.81;37.83;95280.72;5029734;28;20077;-82
2023/05/08 11:32:58;;;;;;;9.15;4.88;;;;;;;24.61;36.17;95255.59;5024957;28;20504;-81
2023/05/08 11:35:46;;;;;;;9.20;4.18;;;;;;;24.86;36.14;95266.88;5034091;28;20419;-81
2023/05/08 11:38:19;;;;;;;9.55;4.50;;;;;;;24.86;36.22;95264.97;5044402;28;20113;-81
2023/05/08 11:40:46;;;;;;;6.68;4.20;;;;;;;25.46;35.30;95261.63;5044910;28;20063;-82